sensor_id;sensor_type;location;lat;lon;timestamp;P1;durP1;ratioP1;P2;durP2;ratioP2
71771;SDS011;59606;52.138;5.424;2023-04-06T00:01:54;14.48;;;7.28;;
71771;SDS011;59606;52.138;5.424;2023-04-06T00:04:21;14.45;;;6.88;;
71771;SDS011;59606;52.138;5.424;2023-04-06T00:06:47;16.13;;;7.33;;
71771;SDS011;59606;52.138;5.424;2023-04-06T00:09:14;13.90;;;6.80;;
71771;SDS011;59606;52.138;5.424;2023-04-06T00:11:40;14.73;;;6.60;;
71771;SDS011;59606;52.138;5.424;2023-04-06T00:14:08;14.60;;;6.57;;
71771;SDS011;59606;52.138;5.424;2023-04-06T00:16:35;13.57;;;6.88;;
71771;SDS011;59606;52.138;5.424;2023-04-06T00:19:02;17.00;;;6.67;;
71771;SDS011;59606;52.138;5.424;2023-04-06T00:21:28;11.13;;;6.53;;
71771;SDS011;59606;52.138;5.424;2023-04-06T00:23:55;14.55;;;7.43;;
71771;SDS011;59606;52.138;5.424;2023-04-06T00:26:21;13.48;;;6.25;;
71771;SDS011;59606;52.138;5.424;2023-04-06T00:28:48;13.88;;;7.00;;
71771;SDS011;59606;52.138;5.424;2023-04-06T00:31:16;17.07;;;6.37;;
71771;SDS011;59606;52.138;5.424;2023-04-06T00:33:42;15.10;;;6.90;;
71771;SDS011;59606;52.138;5.424;2023-04-06T00:36:09;18.45;;;7.55;;
71771;SDS011;59606;52.138;5.424;2023-04-06T00:38:36;14.45;;;7.28;;
71771;SDS011;59606;52.138;5.424;2023-04-06T00:41:03;15.90;;;6.95;;
71771;SDS011;59606;52.138;5.424;2023-04-06T00:43:32;13.40;;;7.10;;
71771;SDS011;59606;52.138;5.424;2023-04-06T00:45:59;16.48;;;6.57;;
71771;SDS011;59606;52.138;5.424;2023-04-06T00:48:25;13.23;;;6.50;;
71771;SDS011;59606;52.138;5.424;2023-04-06T00:50:52;14.23;;;5.70;;
71771;SDS011;59606;52.138;5.424;2023-04-06T00:53:18;14.27;;;6.60;;
71771;SDS011;59606;52.138;5.424;2023-04-06T00:55:45;14.77;;;5.57;;
71771;SDS011;59606;52.138;5.424;2023-04-06T00:58:11;17.77;;;7.13;;
71771;SDS011;59606;52.138;5.424;2023-04-06T01:00:38;14.35;;;7.43;;
71771;SDS011;59606;52.138;5.424;2023-04-06T01:03:04;15.13;;;6.40;;
71771;SDS011;59606;52.138;5.424;2023-04-06T01:05:33;15.52;;;6.85;;
71771;SDS011;59606;52.138;5.424;2023-04-06T01:08:03;12.03;;;6.27;;
71771;SDS011;59606;52.138;5.424;2023-04-06T01:10:30;16.60;;;7.05;;
71771;SDS011;59606;52.138;5.424;2023-04-06T01:12:56;13.57;;;6.90;;
71771;SDS011;59606;52.138;5.424;2023-04-06T01:15:23;13.60;;;6.68;;
71771;SDS011;59606;52.138;5.424;2023-04-06T01:17:51;15.90;;;7.15;;
71771;SDS011;59606;52.138;5.424;2023-04-06T01:20:17;21.73;;;7.67;;
71771;SDS011;59606;52.138;5.424;2023-04-06T01:22:44;15.02;;;6.32;;
71771;SDS011;59606;52.138;5.424;2023-04-06T01:25:10;13.93;;;6.50;;
71771;SDS011;59606;52.138;5.424;2023-04-06T01:27:37;15.48;;;6.85;;
71771;SDS011;59606;52.138;5.424;2023-04-06T01:30:04;15.32;;;7.53;;
71771;SDS011;59606;52.138;5.424;2023-04-06T01:32:31;16.37;;;7.10;;
71771;SDS011;59606;52.138;5.424;2023-04-06T01:34:58;15.27;;;6.88;;
71771;SDS011;59606;52.138;5.424;2023-04-06T01:37:24;15.15;;;6.88;;
71771;SDS011;59606;52.138;5.424;2023-04-06T01:39:51;14.45;;;6.68;;
71771;SDS011;59606;52.138;5.424;2023-04-06T01:42:17;11.32;;;6.07;;
71771;SDS011;59606;52.138;5.424;2023-04-06T01:44:44;16.53;;;7.20;;
71771;SDS011;59606;52.138;5.424;2023-04-06T01:47:11;13.85;;;6.00;;
71771;SDS011;59606;52.138;5.424;2023-04-06T01:49:37;12.48;;;6.18;;
71771;SDS011;59606;52.138;5.424;2023-04-06T01:52:04;14.75;;;7.18;;
71771;SDS011;59606;52.138;5.424;2023-04-06T01:54:30;13.45;;;6.65;;
71771;SDS011;59606;52.138;5.424;2023-04-06T01:56:57;15.80;;;7.37;;
71771;SDS011;59606;52.138;5.424;2023-04-06T01:59:23;15.02;;;6.57;;
71771;SDS011;59606;52.138;5.424;2023-04-06T02:01:50;14.43;;;8.05;;
71771;SDS011;59606;52.138;5.424;2023-04-06T02:04:17;16.30;;;6.97;;
71771;SDS011;59606;52.138;5.424;2023-04-06T02:06:43;13.13;;;6.57;;
71771;SDS011;59606;52.138;5.424;2023-04-06T02:09:10;17.77;;;7.30;;
71771;SDS011;59606;52.138;5.424;2023-04-06T02:11:36;16.27;;;7.35;;
71771;SDS011;59606;52.138;5.424;2023-04-06T02:14:02;15.30;;;7.85;;
71771;SDS011;59606;52.138;5.424;2023-04-06T02:16:29;18.58;;;7.88;;
71771;SDS011;59606;52.138;5.424;2023-04-06T02:18:55;18.05;;;8.18;;
71771;SDS011;59606;52.138;5.424;2023-04-06T02:21:22;15.33;;;7.23;;
71771;SDS011;59606;52.138;5.424;2023-04-06T02:23:49;13.07;;;7.15;;
71771;SDS011;59606;52.138;5.424;2023-04-06T02:26:15;14.10;;;6.80;;
71771;SDS011;59606;52.138;5.424;2023-04-06T02:28:42;15.02;;;7.47;;
71771;SDS011;59606;52.138;5.424;2023-04-06T02:31:08;14.63;;;7.68;;
71771;SDS011;59606;52.138;5.424;2023-04-06T02:33:35;17.10;;;7.23;;
71771;SDS011;59606;52.138;5.424;2023-04-06T02:36:01;14.35;;;7.00;;
71771;SDS011;59606;52.138;5.424;2023-04-06T02:38:28;13.88;;;7.22;;
71771;SDS011;59606;52.138;5.424;2023-04-06T02:40:54;13.80;;;7.45;;
71771;SDS011;59606;52.138;5.424;2023-04-06T02:43:21;20.40;;;7.38;;
71771;SDS011;59606;52.138;5.424;2023-04-06T02:45:47;12.10;;;6.40;;
71771;SDS011;59606;52.138;5.424;2023-04-06T02:48:13;16.23;;;6.85;;
71771;SDS011;59606;52.138;5.424;2023-04-06T02:50:43;17.63;;;7.15;;
71771;SDS011;59606;52.138;5.424;2023-04-06T02:53:10;14.35;;;6.80;;
71771;SDS011;59606;52.138;5.424;2023-04-06T02:55:36;16.90;;;6.65;;
71771;SDS011;59606;52.138;5.424;2023-04-06T02:58:03;14.27;;;7.13;;
71771;SDS011;59606;52.138;5.424;2023-04-06T03:00:29;13.18;;;6.65;;
71771;SDS011;59606;52.138;5.424;2023-04-06T03:02:56;13.73;;;6.72;;
71771;SDS011;59606;52.138;5.424;2023-04-06T03:05:23;15.20;;;7.32;;
71771;SDS011;59606;52.138;5.424;2023-04-06T03:07:49;14.40;;;6.38;;
71771;SDS011;59606;52.138;5.424;2023-04-06T03:10:16;13.73;;;6.57;;
71771;SDS011;59606;52.138;5.424;2023-04-06T03:12:42;12.27;;;6.30;;
71771;SDS011;59606;52.138;5.424;2023-04-06T03:15:09;14.90;;;7.03;;
71771;SDS011;59606;52.138;5.424;2023-04-06T03:17:36;13.98;;;6.43;;
71771;SDS011;59606;52.138;5.424;2023-04-06T03:20:03;17.88;;;6.93;;
71771;SDS011;59606;52.138;5.424;2023-04-06T03:22:30;14.13;;;7.17;;
71771;SDS011;59606;52.138;5.424;2023-04-06T03:24:56;12.30;;;6.30;;
71771;SDS011;59606;52.138;5.424;2023-04-06T03:27:23;11.23;;;5.90;;
71771;SDS011;59606;52.138;5.424;2023-04-06T03:29:49;14.82;;;6.03;;
71771;SDS011;59606;52.138;5.424;2023-04-06T03:32:16;12.45;;;5.93;;
71771;SDS011;59606;52.138;5.424;2023-04-06T03:34:43;12.60;;;6.07;;
71771;SDS011;59606;52.138;5.424;2023-04-06T03:37:09;13.90;;;6.28;;
71771;SDS011;59606;52.138;5.424;2023-04-06T03:39:36;14.68;;;5.93;;
71771;SDS011;59606;52.138;5.424;2023-04-06T03:42:02;12.75;;;5.53;;
71771;SDS011;59606;52.138;5.424;2023-04-06T03:44:29;13.63;;;5.97;;
71771;SDS011;59606;52.138;5.424;2023-04-06T03:46:56;11.80;;;4.97;;
71771;SDS011;59606;52.138;5.424;2023-04-06T03:49:22;13.20;;;5.97;;
71771;SDS011;59606;52.138;5.424;2023-04-06T03:51:49;14.43;;;5.97;;
71771;SDS011;59606;52.138;5.424;2023-04-06T03:54:15;14.40;;;6.03;;
71771;SDS011;59606;52.138;5.424;2023-04-06T03:56:42;13.02;;;5.57;;
71771;SDS011;59606;52.138;5.424;2023-04-06T03:59:08;11.97;;;5.50;;
71771;SDS011;59606;52.138;5.424;2023-04-06T04:01:35;13.60;;;5.65;;
71771;SDS011;59606;52.138;5.424;2023-04-06T04:04:02;13.82;;;5.57;;
71771;SDS011;59606;52.138;5.424;2023-04-06T04:06:29;12.40;;;5.53;;
71771;SDS011;59606;52.138;5.424;2023-04-06T04:09:02;13.95;;;5.70;;
71771;SDS011;59606;52.138;5.424;2023-04-06T04:11:29;12.87;;;5.97;;
71771;SDS011;59606;52.138;5.424;2023-04-06T04:13:55;13.55;;;6.07;;
71771;SDS011;59606;52.138;5.424;2023-04-06T04:16:22;13.93;;;5.90;;
71771;SDS011;59606;52.138;5.424;2023-04-06T04:18:48;11.60;;;5.40;;
71771;SDS011;59606;52.138;5.424;2023-04-06T04:21:15;11.07;;;5.68;;
71771;SDS011;59606;52.138;5.424;2023-04-06T04:23:41;16.97;;;7.40;;
71771;SDS011;59606;52.138;5.424;2023-04-06T04:26:08;13.70;;;5.70;;
71771;SDS011;59606;52.138;5.424;2023-04-06T04:28:34;16.40;;;6.07;;
71771;SDS011;59606;52.138;5.424;2023-04-06T04:31:01;12.48;;;5.93;;
71771;SDS011;59606;52.138;5.424;2023-04-06T04:33:27;16.17;;;6.97;;
71771;SDS011;59606;52.138;5.424;2023-04-06T04:35:54;13.57;;;5.67;;
71771;SDS011;59606;52.138;5.424;2023-04-06T04:38:21;14.68;;;6.15;;
71771;SDS011;59606;52.138;5.424;2023-04-06T04:40:48;14.93;;;6.60;;
71771;SDS011;59606;52.138;5.424;2023-04-06T04:43:15;18.63;;;6.57;;
71771;SDS011;59606;52.138;5.424;2023-04-06T04:45:41;12.15;;;6.15;;
71771;SDS011;59606;52.138;5.424;2023-04-06T04:48:08;12.47;;;6.03;;
71771;SDS011;59606;52.138;5.424;2023-04-06T04:50:35;16.05;;;6.07;;
71771;SDS011;59606;52.138;5.424;2023-04-06T04:53:01;19.20;;;6.35;;
71771;SDS011;59606;52.138;5.424;2023-04-06T04:55:31;15.75;;;6.53;;
71771;SDS011;59606;52.138;5.424;2023-04-06T04:57:58;18.65;;;6.80;;
71771;SDS011;59606;52.138;5.424;2023-04-06T05:00:24;16.63;;;6.43;;
71771;SDS011;59606;52.138;5.424;2023-04-06T05:02:51;16.02;;;6.80;;
71771;SDS011;59606;52.138;5.424;2023-04-06T05:05:18;15.77;;;6.93;;
71771;SDS011;59606;52.138;5.424;2023-04-06T05:07:45;13.50;;;6.57;;
71771;SDS011;59606;52.138;5.424;2023-04-06T05:10:11;14.82;;;7.60;;
71771;SDS011;59606;52.138;5.424;2023-04-06T05:12:38;16.27;;;7.17;;
71771;SDS011;59606;52.138;5.424;2023-04-06T05:15:05;18.20;;;6.90;;
71771;SDS011;59606;52.138;5.424;2023-04-06T05:17:31;18.70;;;7.10;;
71771;SDS011;59606;52.138;5.424;2023-04-06T05:19:58;17.23;;;7.30;;
71771;SDS011;59606;52.138;5.424;2023-04-06T05:22:25;19.08;;;7.40;;
71771;SDS011;59606;52.138;5.424;2023-04-06T05:24:51;15.63;;;7.13;;
71771;SDS011;59606;52.138;5.424;2023-04-06T05:27:17;19.30;;;7.30;;
71771;SDS011;59606;52.138;5.424;2023-04-06T05:29:44;17.30;;;7.40;;
71771;SDS011;59606;52.138;5.424;2023-04-06T05:32:12;21.25;;;8.00;;
71771;SDS011;59606;52.138;5.424;2023-04-06T05:34:39;15.30;;;7.07;;
71771;SDS011;59606;52.138;5.424;2023-04-06T05:37:06;16.27;;;7.40;;
71771;SDS011;59606;52.138;5.424;2023-04-06T05:39:32;16.58;;;6.72;;
71771;SDS011;59606;52.138;5.424;2023-04-06T05:42:01;16.63;;;7.65;;
71771;SDS011;59606;52.138;5.424;2023-04-06T05:44:31;17.58;;;6.97;;
71771;SDS011;59606;52.138;5.424;2023-04-06T05:46:58;17.67;;;7.40;;
71771;SDS011;59606;52.138;5.424;2023-04-06T05:49:24;19.60;;;8.10;;
71771;SDS011;59606;52.138;5.424;2023-04-06T05:51:51;17.13;;;6.95;;
71771;SDS011;59606;52.138;5.424;2023-04-06T05:54:17;19.13;;;7.83;;
71771;SDS011;59606;52.138;5.424;2023-04-06T05:56:48;19.10;;;7.63;;
71771;SDS011;59606;52.138;5.424;2023-04-06T05:59:14;16.58;;;7.55;;
71771;SDS011;59606;52.138;5.424;2023-04-06T06:01:42;20.00;;;8.37;;
71771;SDS011;59606;52.138;5.424;2023-04-06T06:04:08;18.75;;;8.32;;
71771;SDS011;59606;52.138;5.424;2023-04-06T06:06:35;18.05;;;7.90;;
71771;SDS011;59606;52.138;5.424;2023-04-06T06:09:03;20.48;;;7.40;;
71771;SDS011;59606;52.138;5.424;2023-04-06T06:11:29;19.77;;;7.65;;
71771;SDS011;59606;52.138;5.424;2023-04-06T06:13:56;17.03;;;7.80;;
71771;SDS011;59606;52.138;5.424;2023-04-06T06:16:22;17.55;;;8.55;;
71771;SDS011;59606;52.138;5.424;2023-04-06T06:18:49;17.15;;;7.43;;
71771;SDS011;59606;52.138;5.424;2023-04-06T06:21:16;17.65;;;7.93;;
71771;SDS011;59606;52.138;5.424;2023-04-06T06:23:43;16.75;;;7.85;;
71771;SDS011;59606;52.138;5.424;2023-04-06T06:26:09;16.30;;;8.07;;
71771;SDS011;59606;52.138;5.424;2023-04-06T06:28:36;17.27;;;8.30;;
71771;SDS011;59606;52.138;5.424;2023-04-06T06:31:03;22.02;;;9.02;;
71771;SDS011;59606;52.138;5.424;2023-04-06T06:33:30;23.13;;;9.02;;
71771;SDS011;59606;52.138;5.424;2023-04-06T06:35:56;19.98;;;8.73;;
71771;SDS011;59606;52.138;5.424;2023-04-06T06:38:22;24.97;;;9.57;;
71771;SDS011;59606;52.138;5.424;2023-04-06T06:40:49;17.85;;;9.57;;
71771;SDS011;59606;52.138;5.424;2023-04-06T06:43:15;23.17;;;9.05;;
71771;SDS011;59606;52.138;5.424;2023-04-06T06:45:42;19.63;;;8.82;;
71771;SDS011;59606;52.138;5.424;2023-04-06T06:48:08;24.00;;;9.23;;
71771;SDS011;59606;52.138;5.424;2023-04-06T06:50:35;19.43;;;9.17;;
71771;SDS011;59606;52.138;5.424;2023-04-06T06:53:02;17.25;;;8.63;;
71771;SDS011;59606;52.138;5.424;2023-04-06T06:55:28;19.40;;;8.80;;
71771;SDS011;59606;52.138;5.424;2023-04-06T06:57:55;19.02;;;8.93;;
71771;SDS011;59606;52.138;5.424;2023-04-06T07:00:21;19.17;;;9.90;;
71771;SDS011;59606;52.138;5.424;2023-04-06T07:02:48;22.27;;;9.13;;
71771;SDS011;59606;52.138;5.424;2023-04-06T07:05:15;19.17;;;8.40;;
71771;SDS011;59606;52.138;5.424;2023-04-06T07:07:49;17.83;;;8.45;;
71771;SDS011;59606;52.138;5.424;2023-04-06T07:10:15;18.80;;;9.32;;
71771;SDS011;59606;52.138;5.424;2023-04-06T07:12:42;21.17;;;9.88;;
71771;SDS011;59606;52.138;5.424;2023-04-06T07:15:08;18.03;;;8.83;;
71771;SDS011;59606;52.138;5.424;2023-04-06T07:17:35;20.90;;;10.27;;
71771;SDS011;59606;52.138;5.424;2023-04-06T07:20:02;20.17;;;10.02;;
71771;SDS011;59606;52.138;5.424;2023-04-06T07:22:29;22.77;;;9.98;;
71771;SDS011;59606;52.138;5.424;2023-04-06T07:24:56;21.63;;;9.35;;
71771;SDS011;59606;52.138;5.424;2023-04-06T07:27:25;23.37;;;9.50;;
71771;SDS011;59606;52.138;5.424;2023-04-06T07:29:51;20.67;;;10.55;;
71771;SDS011;59606;52.138;5.424;2023-04-06T07:32:18;19.25;;;9.43;;
71771;SDS011;59606;52.138;5.424;2023-04-06T07:34:44;21.20;;;10.52;;
71771;SDS011;59606;52.138;5.424;2023-04-06T07:37:11;23.98;;;10.98;;
71771;SDS011;59606;52.138;5.424;2023-04-06T07:39:37;21.67;;;10.77;;
71771;SDS011;59606;52.138;5.424;2023-04-06T07:42:04;21.80;;;10.05;;
71771;SDS011;59606;52.138;5.424;2023-04-06T07:44:30;25.10;;;11.25;;
71771;SDS011;59606;52.138;5.424;2023-04-06T07:46:57;24.45;;;11.05;;
71771;SDS011;59606;52.138;5.424;2023-04-06T07:49:23;22.52;;;10.25;;
71771;SDS011;59606;52.138;5.424;2023-04-06T07:51:50;19.77;;;10.40;;
71771;SDS011;59606;52.138;5.424;2023-04-06T07:54:16;24.60;;;10.93;;
71771;SDS011;59606;52.138;5.424;2023-04-06T07:56:43;20.60;;;9.93;;
71771;SDS011;59606;52.138;5.424;2023-04-06T07:59:09;24.65;;;11.35;;
71771;SDS011;59606;52.138;5.424;2023-04-06T08:01:37;25.23;;;11.57;;
71771;SDS011;59606;52.138;5.424;2023-04-06T08:04:04;25.87;;;11.73;;
71771;SDS011;59606;52.138;5.424;2023-04-06T08:06:30;23.80;;;11.20;;
71771;SDS011;59606;52.138;5.424;2023-04-06T08:08:57;24.75;;;11.10;;
71771;SDS011;59606;52.138;5.424;2023-04-06T08:11:23;23.85;;;10.63;;
71771;SDS011;59606;52.138;5.424;2023-04-06T08:13:50;26.33;;;11.68;;
71771;SDS011;59606;52.138;5.424;2023-04-06T08:16:17;21.83;;;11.47;;
71771;SDS011;59606;52.138;5.424;2023-04-06T08:18:44;28.25;;;11.13;;
71771;SDS011;59606;52.138;5.424;2023-04-06T08:21:11;22.95;;;11.00;;
71771;SDS011;59606;52.138;5.424;2023-04-06T08:23:37;24.65;;;11.70;;
71771;SDS011;59606;52.138;5.424;2023-04-06T08:26:04;23.92;;;10.95;;
71771;SDS011;59606;52.138;5.424;2023-04-06T08:28:30;22.13;;;11.10;;
71771;SDS011;59606;52.138;5.424;2023-04-06T08:30:57;26.67;;;11.23;;
71771;SDS011;59606;52.138;5.424;2023-04-06T08:33:23;32.75;;;12.23;;
71771;SDS011;59606;52.138;5.424;2023-04-06T08:35:50;31.80;;;12.00;;
71771;SDS011;59606;52.138;5.424;2023-04-06T08:38:16;31.20;;;12.15;;
71771;SDS011;59606;52.138;5.424;2023-04-06T08:40:43;31.70;;;11.77;;
71771;SDS011;59606;52.138;5.424;2023-04-06T08:43:12;28.00;;;11.80;;
71771;SDS011;59606;52.138;5.424;2023-04-06T08:45:40;31.17;;;14.95;;
71771;SDS011;59606;52.138;5.424;2023-04-06T08:48:08;27.98;;;11.57;;
71771;SDS011;59606;52.138;5.424;2023-04-06T08:50:35;24.63;;;12.38;;
71771;SDS011;59606;52.138;5.424;2023-04-06T08:53:04;27.80;;;12.23;;
71771;SDS011;59606;52.138;5.424;2023-04-06T08:55:32;22.15;;;12.40;;
71771;SDS011;59606;52.138;5.424;2023-04-06T08:57:59;26.33;;;13.25;;
71771;SDS011;59606;52.138;5.424;2023-04-06T09:02:54;31.08;;;13.55;;
71771;SDS011;59606;52.138;5.424;2023-04-06T09:05:23;25.30;;;12.00;;
71771;SDS011;59606;52.138;5.424;2023-04-06T09:07:51;26.05;;;11.80;;
71771;SDS011;59606;52.138;5.424;2023-04-06T09:10:18;32.03;;;13.57;;
71771;SDS011;59606;52.138;5.424;2023-04-06T09:12:44;29.23;;;13.60;;
71771;SDS011;59606;52.138;5.424;2023-04-06T09:15:18;30.88;;;13.50;;
71771;SDS011;59606;52.138;5.424;2023-04-06T09:17:49;25.70;;;12.30;;
71771;SDS011;59606;52.138;5.424;2023-04-06T09:20:21;27.40;;;13.43;;
71771;SDS011;59606;52.138;5.424;2023-04-06T09:22:51;28.17;;;12.90;;
71771;SDS011;59606;52.138;5.424;2023-04-06T09:25:19;30.75;;;13.18;;
71771;SDS011;59606;52.138;5.424;2023-04-06T09:27:58;30.00;;;12.98;;
71771;SDS011;59606;52.138;5.424;2023-04-06T09:30:26;23.87;;;12.47;;
71771;SDS011;59606;52.138;5.424;2023-04-06T09:32:54;29.75;;;13.15;;
71771;SDS011;59606;52.138;5.424;2023-04-06T09:35:22;25.13;;;13.05;;
71771;SDS011;59606;52.138;5.424;2023-04-06T09:37:50;26.15;;;12.68;;
71771;SDS011;59606;52.138;5.424;2023-04-06T09:40:18;30.35;;;13.57;;
71771;SDS011;59606;52.138;5.424;2023-04-06T09:42:46;26.33;;;12.83;;
71771;SDS011;59606;52.138;5.424;2023-04-06T09:45:13;23.45;;;12.32;;
71771;SDS011;59606;52.138;5.424;2023-04-06T09:47:44;23.23;;;12.93;;
71771;SDS011;59606;52.138;5.424;2023-04-06T09:50:12;24.90;;;12.80;;
71771;SDS011;59606;52.138;5.424;2023-04-06T09:52:46;24.83;;;13.48;;
71771;SDS011;59606;52.138;5.424;2023-04-06T09:55:21;25.57;;;12.80;;
71771;SDS011;59606;52.138;5.424;2023-04-06T09:57:53;27.95;;;12.98;;
71771;SDS011;59606;52.138;5.424;2023-04-06T10:00:27;27.95;;;13.10;;
71771;SDS011;59606;52.138;5.424;2023-04-06T10:05:46;30.40;;;14.30;;
71771;SDS011;59606;52.138;5.424;2023-04-06T10:08:18;27.70;;;13.07;;
71771;SDS011;59606;52.138;5.424;2023-04-06T10:10:46;29.73;;;14.45;;
71771;SDS011;59606;52.138;5.424;2023-04-06T10:13:13;33.75;;;14.82;;
71771;SDS011;59606;52.138;5.424;2023-04-06T10:15:41;28.13;;;13.57;;
71771;SDS011;59606;52.138;5.424;2023-04-06T10:18:08;27.65;;;13.48;;
71771;SDS011;59606;52.138;5.424;2023-04-06T10:20:37;26.17;;;12.90;;
71771;SDS011;59606;52.138;5.424;2023-04-06T10:25:53;28.20;;;11.52;;
71771;SDS011;59606;52.138;5.424;2023-04-06T10:28:25;22.20;;;10.65;;
71771;SDS011;59606;52.138;5.424;2023-04-06T10:30:57;27.98;;;13.38;;
71771;SDS011;59606;52.138;5.424;2023-04-06T10:33:24;21.87;;;11.80;;
71771;SDS011;59606;52.138;5.424;2023-04-06T10:35:50;20.33;;;10.45;;
71771;SDS011;59606;52.138;5.424;2023-04-06T10:38:19;23.83;;;9.00;;
71771;SDS011;59606;52.138;5.424;2023-04-06T10:40:50;18.58;;;9.50;;
71771;SDS011;59606;52.138;5.424;2023-04-06T10:43:20;18.85;;;9.43;;
71771;SDS011;59606;52.138;5.424;2023-04-06T10:45:54;17.37;;;9.13;;
71771;SDS011;59606;52.138;5.424;2023-04-06T10:48:22;17.60;;;8.05;;
71771;SDS011;59606;52.138;5.424;2023-04-06T10:50:51;13.52;;;7.03;;
71771;SDS011;59606;52.138;5.424;2023-04-06T10:55:49;11.80;;;5.40;;
71771;SDS011;59606;52.138;5.424;2023-04-06T10:58:16;13.90;;;5.70;;
71771;SDS011;59606;52.138;5.424;2023-04-06T11:00:47;10.93;;;5.22;;
71771;SDS011;59606;52.138;5.424;2023-04-06T11:03:16;10.15;;;4.78;;
71771;SDS011;59606;52.138;5.424;2023-04-06T11:05:47;8.48;;;4.57;;
71771;SDS011;59606;52.138;5.424;2023-04-06T11:08:28;11.10;;;4.95;;
71771;SDS011;59606;52.138;5.424;2023-04-06T11:11:15;10.43;;;4.53;;
71771;SDS011;59606;52.138;5.424;2023-04-06T11:13:45;9.10;;;4.50;;
71771;SDS011;59606;52.138;5.424;2023-04-06T11:16:15;10.48;;;4.22;;
71771;SDS011;59606;52.138;5.424;2023-04-06T11:18:51;8.98;;;3.83;;
71771;SDS011;59606;52.138;5.424;2023-04-06T11:21:20;9.50;;;4.35;;
71771;SDS011;59606;52.138;5.424;2023-04-06T11:24:31;10.27;;;4.33;;
71771;SDS011;59606;52.138;5.424;2023-04-06T11:26:53;10.50;;;3.95;;
71771;SDS011;59606;52.138;5.424;2023-04-06T11:29:22;9.10;;;3.65;;
71771;SDS011;59606;52.138;5.424;2023-04-06T11:34:18;9.43;;;3.92;;
71771;SDS011;59606;52.138;5.424;2023-04-06T11:36:47;11.10;;;4.67;;
71771;SDS011;59606;52.138;5.424;2023-04-06T11:39:18;7.25;;;3.88;;
71771;SDS011;59606;52.138;5.424;2023-04-06T11:41:47;10.00;;;4.60;;
71771;SDS011;59606;52.138;5.424;2023-04-06T11:44:14;7.70;;;3.53;;
71771;SDS011;59606;52.138;5.424;2023-04-06T11:46:50;8.57;;;4.32;;
71771;SDS011;59606;52.138;5.424;2023-04-06T11:49:17;8.60;;;3.80;;
71771;SDS011;59606;52.138;5.424;2023-04-06T11:51:45;8.82;;;3.85;;
71771;SDS011;59606;52.138;5.424;2023-04-06T11:54:12;8.70;;;4.22;;
71771;SDS011;59606;52.138;5.424;2023-04-06T11:56:39;6.65;;;3.60;;
71771;SDS011;59606;52.138;5.424;2023-04-06T11:59:05;8.75;;;3.92;;
71771;SDS011;59606;52.138;5.424;2023-04-06T12:01:32;9.23;;;3.50;;
71771;SDS011;59606;52.138;5.424;2023-04-06T12:04:04;9.85;;;4.70;;
71771;SDS011;59606;52.138;5.424;2023-04-06T12:06:31;9.50;;;4.55;;
71771;SDS011;59606;52.138;5.424;2023-04-06T12:08:57;9.02;;;4.32;;
71771;SDS011;59606;52.138;5.424;2023-04-06T12:11:24;9.23;;;4.28;;
71771;SDS011;59606;52.138;5.424;2023-04-06T12:13:50;10.43;;;4.50;;
71771;SDS011;59606;52.138;5.424;2023-04-06T12:16:17;8.50;;;4.65;;
71771;SDS011;59606;52.138;5.424;2023-04-06T12:18:45;9.30;;;4.63;;
71771;SDS011;59606;52.138;5.424;2023-04-06T12:21:12;10.68;;;4.57;;
71771;SDS011;59606;52.138;5.424;2023-04-06T12:23:38;10.65;;;4.97;;
71771;SDS011;59606;52.138;5.424;2023-04-06T12:26:05;9.80;;;4.60;;
71771;SDS011;59606;52.138;5.424;2023-04-06T12:28:38;11.77;;;5.05;;
71771;SDS011;59606;52.138;5.424;2023-04-06T12:31:05;10.60;;;5.28;;
71771;SDS011;59606;52.138;5.424;2023-04-06T12:33:31;12.27;;;5.22;;
71771;SDS011;59606;52.138;5.424;2023-04-06T12:35:58;17.95;;;5.43;;
71771;SDS011;59606;52.138;5.424;2023-04-06T12:38:24;9.60;;;4.83;;
71771;SDS011;59606;52.138;5.424;2023-04-06T12:40:51;12.75;;;5.40;;
71771;SDS011;59606;52.138;5.424;2023-04-06T12:43:17;10.88;;;4.97;;
71771;SDS011;59606;52.138;5.424;2023-04-06T12:45:44;11.48;;;5.15;;
71771;SDS011;59606;52.138;5.424;2023-04-06T12:48:10;12.52;;;5.45;;
71771;SDS011;59606;52.138;5.424;2023-04-06T12:50:37;11.37;;;5.10;;
71771;SDS011;59606;52.138;5.424;2023-04-06T12:53:04;16.23;;;5.95;;
71771;SDS011;59606;52.138;5.424;2023-04-06T12:55:30;10.40;;;4.47;;
71771;SDS011;59606;52.138;5.424;2023-04-06T12:58:00;11.45;;;5.45;;
71771;SDS011;59606;52.138;5.424;2023-04-06T13:00:27;11.60;;;5.28;;
71771;SDS011;59606;52.138;5.424;2023-04-06T13:02:53;16.33;;;5.83;;
71771;SDS011;59606;52.138;5.424;2023-04-06T13:05:20;11.68;;;5.75;;
71771;SDS011;59606;52.138;5.424;2023-04-06T13:07:46;9.50;;;5.50;;
71771;SDS011;59606;52.138;5.424;2023-04-06T13:10:13;11.45;;;5.10;;
71771;SDS011;59606;52.138;5.424;2023-04-06T13:12:40;16.27;;;5.82;;
71771;SDS011;59606;52.138;5.424;2023-04-06T13:15:09;14.53;;;5.77;;
71771;SDS011;59606;52.138;5.424;2023-04-06T13:17:36;11.07;;;5.38;;
71771;SDS011;59606;52.138;5.424;2023-04-06T13:20:02;10.50;;;4.85;;
71771;SDS011;59606;52.138;5.424;2023-04-06T13:22:29;12.25;;;6.15;;
71771;SDS011;59606;52.138;5.424;2023-04-06T13:24:56;11.48;;;5.38;;
71771;SDS011;59606;52.138;5.424;2023-04-06T13:27:22;13.43;;;6.27;;
71771;SDS011;59606;52.138;5.424;2023-04-06T13:29:49;12.07;;;5.25;;
71771;SDS011;59606;52.138;5.424;2023-04-06T13:32:16;14.77;;;6.53;;
71771;SDS011;59606;52.138;5.424;2023-04-06T13:34:42;11.77;;;6.20;;
71771;SDS011;59606;52.138;5.424;2023-04-06T13:37:12;11.82;;;6.15;;
71771;SDS011;59606;52.138;5.424;2023-04-06T13:39:39;10.50;;;5.57;;
71771;SDS011;59606;52.138;5.424;2023-04-06T13:42:06;10.43;;;4.97;;
71771;SDS011;59606;52.138;5.424;2023-04-06T13:44:33;14.27;;;6.00;;
71771;SDS011;59606;52.138;5.424;2023-04-06T13:46:59;11.07;;;5.78;;
71771;SDS011;59606;52.138;5.424;2023-04-06T13:49:26;10.98;;;5.75;;
71771;SDS011;59606;52.138;5.424;2023-04-06T13:51:53;12.40;;;6.33;;
71771;SDS011;59606;52.138;5.424;2023-04-06T13:54:19;11.13;;;5.55;;
71771;SDS011;59606;52.138;5.424;2023-04-06T13:56:46;13.10;;;5.68;;
71771;SDS011;59606;52.138;5.424;2023-04-06T13:59:13;10.65;;;5.00;;
71771;SDS011;59606;52.138;5.424;2023-04-06T14:01:39;11.20;;;5.45;;
71771;SDS011;59606;52.138;5.424;2023-04-06T14:04:06;14.63;;;6.40;;
71771;SDS011;59606;52.138;5.424;2023-04-06T14:06:33;13.38;;;5.78;;
71771;SDS011;59606;52.138;5.424;2023-04-06T14:08:59;12.57;;;6.25;;
71771;SDS011;59606;52.138;5.424;2023-04-06T14:11:26;11.63;;;5.45;;
71771;SDS011;59606;52.138;5.424;2023-04-06T14:13:52;11.15;;;5.22;;
71771;SDS011;59606;52.138;5.424;2023-04-06T14:16:23;12.20;;;5.70;;
71771;SDS011;59606;52.138;5.424;2023-04-06T14:18:50;14.15;;;5.93;;
71771;SDS011;59606;52.138;5.424;2023-04-06T14:21:17;12.10;;;5.05;;
71771;SDS011;59606;52.138;5.424;2023-04-06T14:23:44;9.32;;;4.93;;
71771;SDS011;59606;52.138;5.424;2023-04-06T14:26:12;13.30;;;6.15;;
71771;SDS011;59606;52.138;5.424;2023-04-06T14:28:39;14.73;;;6.20;;
71771;SDS011;59606;52.138;5.424;2023-04-06T14:31:12;10.52;;;5.40;;
71771;SDS011;59606;52.138;5.424;2023-04-06T14:33:39;12.80;;;5.53;;
71771;SDS011;59606;52.138;5.424;2023-04-06T14:36:07;13.23;;;6.43;;
71771;SDS011;59606;52.138;5.424;2023-04-06T14:38:34;12.95;;;6.43;;
71771;SDS011;59606;52.138;5.424;2023-04-06T14:41:00;15.80;;;7.77;;
71771;SDS011;59606;52.138;5.424;2023-04-06T14:43:27;19.17;;;6.78;;
71771;SDS011;59606;52.138;5.424;2023-04-06T14:45:53;21.05;;;8.70;;
71771;SDS011;59606;52.138;5.424;2023-04-06T14:48:20;15.52;;;7.55;;